createdAt,value
2022-08-03T00:00:29.042Z,15.65
2022-08-03T00:05:48.370Z,15.84
2022-08-03T00:10:55.865Z,15.99
2022-08-03T00:16:03.411Z,16.07
2022-08-03T00:21:10.889Z,15.9
2022-08-03T00:26:18.461Z,15.74
2022-08-03T00:31:25.902Z,15.66
2022-08-03T00:36:32.218Z,15.8
2022-08-03T00:41:41.207Z,15.86
2022-08-03T00:46:48.321Z,15.76
2022-08-03T00:51:55.764Z,15.61
2022-08-03T00:57:02.372Z,15.54
2022-08-03T01:02:10.292Z,15.7
2022-08-03T01:07:17.363Z,15.58
2022-08-03T01:12:25.429Z,15.52
2022-08-03T01:17:32.445Z,15.33
2022-08-03T01:22:40.217Z,15.21
2022-08-03T01:27:47.983Z,15.33
2022-08-03T01:32:54.898Z,15.34
2022-08-03T01:38:02.461Z,15.33
2022-08-03T01:43:11.353Z,15.22
2022-08-03T01:48:19.662Z,15.1
2022-08-03T01:53:28.273Z,14.99
2022-08-03T01:58:35.134Z,14.96
2022-08-03T02:03:42.905Z,14.83
2022-08-03T02:08:50.134Z,14.74
2022-08-03T02:13:56.727Z,14.78
2022-08-03T02:19:04.531Z,14.74
2022-08-03T02:24:11.730Z,14.72
2022-08-03T02:29:19.595Z,14.76
2022-08-03T02:34:27.040Z,14.71
2022-08-03T02:39:34.823Z,14.54
2022-08-03T02:44:41.843Z,14.43
2022-08-03T02:49:48.357Z,14.53
2022-08-03T02:54:56.214Z,14.5
2022-08-03T03:00:04.053Z,14.34
2022-08-03T03:05:11.274Z,14.32
2022-08-03T03:10:18.404Z,14.46
2022-08-03T03:15:31.408Z,14.46
2022-08-03T03:20:38.361Z,14.52
2022-08-03T03:25:45.907Z,14.46
2022-08-03T03:30:53.712Z,14.34
2022-08-03T03:36:01.409Z,14.44
2022-08-03T03:41:08.062Z,14.38
2022-08-03T03:46:16.008Z,14.24
2022-08-03T03:51:23.943Z,14.48
2022-08-03T03:56:30.967Z,14.63
2022-08-03T04:01:38.799Z,14.58
2022-08-03T04:06:51.094Z,14.94
2022-08-03T04:11:59.192Z,15.54
2022-08-03T04:17:07.278Z,16.3
2022-08-03T04:22:15.211Z,17.22
2022-08-03T04:27:23.908Z,18.17
2022-08-03T04:32:31.924Z,19.3
2022-08-03T04:37:40.143Z,20.19
2022-08-03T04:42:47.249Z,20.9
2022-08-03T04:47:54.873Z,21.44
2022-08-03T04:53:01.647Z,21.8
2022-08-03T04:58:11.277Z,21.98
2022-08-03T05:03:18.607Z,22.2
2022-08-03T05:08:25.382Z,22.34
2022-08-03T05:13:33.012Z,22.57
2022-08-03T05:18:39.601Z,22.96
2022-08-03T05:23:46.774Z,23.36
2022-08-03T05:28:55.255Z,23.75
2022-08-03T05:35:34.280Z,24.4
2022-08-03T05:40:40.661Z,24.89
2022-08-03T05:45:49.085Z,25.32
2022-08-03T05:50:56.250Z,25.92
2022-08-03T05:56:03.459Z,26.16
2022-08-03T06:01:11.573Z,26.68
2022-08-03T06:06:19.097Z,27.18
2022-08-03T06:11:26.305Z,27.1
2022-08-03T06:16:34.139Z,27.35
2022-08-03T06:21:41.367Z,27.66
2022-08-03T06:26:49.646Z,28.25
2022-08-03T06:31:57.304Z,28.56
2022-08-03T06:37:05.336Z,28.84
2022-08-03T06:42:13.410Z,29.19
2022-08-03T06:47:21.731Z,29.44
2022-08-03T06:52:28.999Z,29.97
2022-08-03T06:57:36.793Z,30.58
2022-08-03T07:02:44.957Z,31.34
2022-08-03T07:07:52.735Z,32.04
2022-08-03T07:13:00.873Z,31.96
2022-08-03T07:18:08.849Z,32.26
2022-08-03T07:23:16.721Z,31.84
2022-08-03T07:28:25.690Z,31.25
2022-08-03T07:34:13.392Z,30.83
2022-08-03T07:39:19.916Z,29.9
2022-08-03T07:44:28.352Z,30.36
2022-08-03T07:49:35.587Z,30.34
2022-08-03T07:54:44.564Z,30.51
2022-08-03T07:59:54.252Z,30.76
2022-08-03T08:05:02.883Z,31.42
2022-08-03T08:10:11.282Z,33.28
2022-08-03T08:15:18.614Z,34.78
2022-08-03T08:20:25.875Z,35.38
2022-08-03T08:25:34.074Z,36.19
2022-08-03T08:30:41.953Z,36.28
2022-08-03T08:35:51.117Z,36.26
2022-08-03T08:40:58.438Z,36.24
2022-08-03T08:46:05.931Z,36.43
2022-08-03T08:51:13.848Z,36.33
2022-08-03T08:56:22.161Z,36.02
2022-08-03T09:01:29.835Z,35.61
2022-08-03T09:06:38.308Z,35.36
2022-08-03T09:11:45.707Z,35.34
2022-08-03T09:16:52.050Z,35.04
2022-08-03T09:21:59.429Z,34.58
2022-08-03T09:27:06.966Z,34.45
2022-08-03T09:32:23.124Z,34.84
2022-08-03T09:37:31.071Z,34.51
2022-08-03T09:42:37.728Z,34.31
2022-08-03T09:47:44.841Z,34.4
2022-08-03T09:52:56.334Z,34.19
2022-08-03T09:58:03.767Z,34.93
2022-08-03T10:03:11.609Z,35.17
2022-08-03T10:08:19.840Z,35.7
2022-08-03T10:13:27.502Z,36.38
2022-08-03T10:18:34.664Z,36.69
2022-08-03T10:23:43.052Z,36.94
2022-08-03T10:28:51.006Z,37.08
2022-08-03T10:33:58.620Z,36.75
2022-08-03T10:39:05.920Z,36.58
2022-08-03T10:44:13.019Z,36.65
2022-08-03T10:49:20.245Z,36.34
2022-08-03T10:54:28.012Z,36.24
2022-08-03T10:59:35.276Z,36.29
2022-08-03T11:04:43.610Z,36.86
2022-08-03T11:09:51.578Z,37.29
2022-08-03T11:14:58.969Z,37.29
2022-08-03T11:20:07.111Z,37.9
2022-08-03T11:25:13.820Z,37.5
2022-08-03T11:30:21.658Z,37.56
2022-08-03T11:35:28.864Z,37.11
2022-08-03T11:40:36.030Z,37.02
2022-08-03T11:45:42.612Z,36.84
2022-08-03T11:50:51.414Z,36.9
2022-08-03T11:55:59.104Z,36.49
2022-08-03T12:01:06.550Z,36.49
2022-08-03T12:06:13.924Z,36.21
2022-08-03T12:11:20.538Z,36.52
2022-08-03T12:16:27.958Z,36.77
2022-08-03T12:21:36.717Z,36.31
2022-08-03T12:27:34.676Z,35.98
2022-08-03T12:32:41.204Z,36.04
2022-08-03T12:37:49.657Z,35.58
2022-08-03T12:42:56.858Z,35.56
2022-08-03T12:48:05.067Z,35.95
2022-08-03T12:53:12.540Z,35.77
2022-08-03T12:58:21.057Z,36.0
2022-08-03T13:03:29.699Z,36.11
2022-08-03T13:08:38.144Z,36.21
2022-08-03T13:13:45.817Z,36.2
2022-08-03T13:18:54.499Z,36.67
2022-08-03T13:24:02.378Z,37.32
2022-08-03T13:29:08.691Z,37.1
2022-08-03T13:34:15.890Z,37.58
2022-08-03T13:39:24.334Z,38.47
2022-08-03T13:44:31.940Z,38.98
2022-08-03T13:49:39.448Z,39.12
2022-08-03T13:54:46.558Z,39.36
2022-08-03T13:59:53.855Z,39.24
2022-08-03T14:05:02.081Z,39.24
2022-08-03T14:10:10.342Z,39.71
2022-08-03T14:15:18.308Z,40.17
2022-08-03T14:20:26.963Z,41.02
2022-08-03T14:25:34.693Z,40.86
2022-08-03T14:30:41.496Z,40.38
2022-08-03T14:35:48.964Z,40.75
2022-08-03T14:40:56.964Z,41.14
2022-08-03T14:46:04.883Z,40.76
2022-08-03T14:51:13.090Z,40.76
2022-08-03T14:56:21.214Z,40.57
2022-08-03T15:01:44.423Z,40.02
2022-08-03T15:06:52.364Z,39.59
2022-08-03T15:12:00.208Z,39.24
2022-08-03T15:17:14.705Z,38.17
2022-08-03T15:22:23.447Z,37.04
2022-08-03T15:27:30.780Z,35.36
2022-08-03T15:32:37.415Z,34.11
2022-08-03T15:38:01.142Z,33.2
2022-08-03T15:43:08.845Z,32.29
2022-08-03T15:48:16.888Z,31.66
2022-08-03T15:53:24.380Z,31.36
2022-08-03T15:58:30.654Z,31.07
2022-08-03T16:03:38.006Z,31.16
2022-08-03T16:08:45.059Z,30.86
2022-08-03T16:13:53.214Z,30.92
2022-08-03T16:19:00.090Z,30.69
2022-08-03T16:24:08.178Z,30.26
2022-08-03T16:29:16.246Z,29.97
2022-08-03T16:34:22.934Z,29.65
2022-08-03T16:39:31.173Z,29.32
2022-08-03T16:44:39.855Z,29.1
2022-08-03T16:49:47.470Z,28.72
2022-08-03T16:54:53.663Z,28.36
2022-08-03T17:00:00.216Z,27.88
2022-08-03T17:05:07.414Z,27.51
2022-08-03T17:10:14.871Z,27.28
2022-08-03T17:15:23.435Z,27.12
2022-08-03T17:20:30.960Z,27.03
2022-08-03T17:25:37.495Z,26.7
2022-08-03T17:30:45.968Z,26.4
2022-08-03T17:35:53.823Z,26.02
2022-08-03T17:41:01.719Z,25.64
2022-08-03T17:46:09.089Z,25.22
2022-08-03T17:51:16.795Z,24.84
2022-08-03T17:56:23.897Z,24.54
2022-08-03T18:01:31.877Z,24.2
2022-08-03T18:06:39.447Z,23.99
2022-08-03T18:11:46.857Z,23.74
2022-08-03T18:16:54.245Z,23.5
2022-08-03T18:22:01.477Z,23.23
2022-08-03T18:27:10.042Z,22.96
2022-08-03T18:32:17.490Z,22.7
2022-08-03T18:37:24.124Z,22.42
2022-08-03T18:42:31.691Z,22.02
2022-08-03T18:47:37.825Z,21.8
2022-08-03T18:52:46.002Z,21.51
2022-08-03T18:57:53.537Z,21.1
2022-08-03T19:03:01.273Z,21.0
2022-08-03T19:08:07.934Z,20.76
2022-08-03T19:13:15.123Z,20.29
2022-08-03T19:18:22.996Z,19.9
2022-08-03T19:23:29.989Z,19.67
2022-08-03T19:28:37.689Z,19.47
2022-08-03T19:33:45.180Z,19.24
2022-08-03T19:38:52.322Z,18.8
2022-08-03T19:43:59.544Z,18.58
2022-08-03T19:49:06.779Z,18.43
2022-08-03T19:54:14.265Z,18.33
2022-08-03T19:59:22.971Z,18.28
2022-08-03T20:04:30.162Z,18.23
2022-08-03T20:09:37.509Z,18.22
2022-08-03T20:14:46.745Z,18.12
2022-08-03T20:19:54.980Z,18.06
2022-08-03T20:25:03.282Z,17.78
2022-08-03T20:30:11.857Z,17.64
2022-08-03T20:35:20.976Z,17.54
2022-08-03T20:40:29.019Z,17.49
2022-08-03T20:45:36.479Z,17.49
2022-08-03T20:50:44.484Z,17.48
2022-08-03T20:55:52.283Z,17.34
2022-08-03T21:01:00.081Z,17.18
2022-08-03T21:06:07.114Z,17.06
2022-08-03T21:11:15.675Z,16.89
2022-08-03T21:16:22.634Z,16.8
2022-08-03T21:21:30.041Z,16.61
2022-08-03T21:26:37.597Z,16.62
2022-08-03T21:31:44.646Z,16.49
2022-08-03T21:36:52.088Z,16.44
2022-08-03T21:42:00.410Z,16.29
2022-08-03T21:47:10.506Z,16.28
2022-08-03T21:52:18.729Z,16.28
2022-08-03T21:57:27.146Z,16.33
2022-08-03T22:02:35.462Z,16.2
2022-08-03T22:07:41.657Z,16.12
2022-08-03T22:12:49.461Z,16.09
2022-08-03T22:17:56.699Z,15.96
2022-08-03T22:23:04.412Z,15.86
2022-08-03T22:28:12.488Z,15.86
2022-08-03T22:33:20.424Z,15.93
2022-08-03T22:39:05.813Z,15.88
2022-08-03T22:44:13.492Z,15.7
2022-08-03T22:49:22.387Z,15.69
2022-08-03T22:54:31.284Z,15.72
2022-08-03T22:59:39.101Z,15.58
2022-08-03T23:04:46.433Z,15.56
2022-08-03T23:09:53.957Z,15.53
2022-08-03T23:15:00.978Z,15.39
2022-08-03T23:20:08.746Z,15.32
2022-08-03T23:25:15.100Z,15.36
2022-08-03T23:30:22.937Z,15.3
2022-08-03T23:35:31.842Z,15.2
2022-08-03T23:40:38.617Z,15.07
2022-08-03T23:45:46.258Z,15.0
2022-08-03T23:50:54.239Z,14.94
2022-08-03T23:56:02.006Z,14.92
